Nearby METAR Reports

 

KMSY - New Orleans,Louisiana, USA
Distance from station: E 11.7mi, 18.8km
Updated: Sun, 21-Jul-2019 3:53am CDT
Mostly cloudy
Mostly cloudy
 Wind from E
Wind: E 3 mph , 6 km/h
Temperature: 79°F , 26°C
Dew Point: 75°F , 24°C
Humidity: 89%
Barometer: 30.00 inHg , 1015.9 hPa
Clouds: Mostly cloudy
Visibility: 10 miles , 16 km
Cloud details: Few Clouds 3400 ft
Partly cloudy 11000 ft
Mostly cloudy 25000 ft
2019/07/21 08:53 KMSY 210853Z 08003KT 10SM FEW034 SCT110 BKN250 26/24 A3000 RMK AO2 SLP162 T02610239 55001 $
KAPS - Reserve,Louisiana, USA
Distance from station: W 8.4mi, 13.5km
Updated: Sun, 21-Jul-2019 4:35am CDT
Overcast
Overcast
 Wind from W
Wind: W 8 mph , 13 km/h
Temperature: 79°F , 26°C
Dew Point: 75°F , 24°C
Humidity: 89%
Barometer: 30.00 inHg , 1015.9 hPa
Clouds: Overcast
Visibility: 10 miles , 16 km
Cloud details: Overcast 2000 ft
2019/07/21 09:35 KAPS 210935Z AUTO 28007KT 10SM OVC020 26/24 A3000 RMK AO2 T02600235
 
KHDC - Hammond,Louisiana, USA
Distance from station: N 31.5mi, 50.6km
Updated: Sun, 21-Jul-2019 4:35am CDT
Clear
Clear
 Wind from calm
Wind: Calm
Temperature: 73°F , 23°C
Dew Point: 72°F , 22°C
Humidity: 94%
Barometer: 30.00 inHg , 1015.9 hPa
Clouds: Clear
Visibility: 10 miles , 16 km
2019/07/21 09:35 KHDC 210935Z AUTO 00000KT 10SM CLR 23/22 A3000 RMK AO2
KHUM - Houma,Louisiana, USA
Distance from station: SW 36.54mi, 58.8km
Updated: Sun, 21-Jul-2019 4:35am CDT
Partly cloudy
Partly cloudy
 Wind from W
Wind: W 5 mph , 7 km/h
Temperature: 79°F , 26°C
Dew Point: 77°F , 25°C
Humidity: 94%
Barometer: 30.01 inHg , 1016.3 hPa
Clouds: Partly cloudy
Visibility: 7 miles , 11 km
Cloud details: Partly cloudy 2000 ft
Partly cloudy 2900 ft
2019/07/21 09:35 KHUM 210935Z AUTO 26004KT 7SM SCT020 SCT029 26/25 A3001 RMK AO2 LTG DSNT W T02550246